LFAT

Le Touquet-Côte d'Opale Airport

Le Touquet-Paris-Plage, France
METAR LFAT 170030Z AUTO 27005KT 240V300 9999 FEW020 SCT027 OVC150 08/05 Q1004
Observed Flight Rules
Jan-17 @ 00:30 UTC (25 minutes ago) Visual Flight Rules
Wind Visibility Clouds
270° at 5 knots 10,000+ meters
  • Few at 2,000' AGL
  • Scattered at 2,700' AGL
  • Overcast at 15,000' AGL
Temperatures Readings
Current 8°C / 46°F
Dewpoint 5°C / 41°F
Humidity 82%
Altimeter 29.65" Hg
Pressure 1003.92 hPa
Elevation 14
METAR LFAT 170030Z AUTO 27005KT 240V300 9999 FEW020 SCT027 OVC150 08/05 Q1004
Observed Flight Rules
Jan-17 @ 00:30 UTC
(25 minutes ago)
VFR
Wind Visibility
270° at 5 knots 10,000+ meters
Clouds
  • Few at 2,000' AGL
  • Scattered at 2,700' AGL
  • Overcast at 15,000' AGL
Temperature Dewpoint
8°C / 46°F 5°C / 41°F
Humidity Altimeter Pressure
82% 29.65" Hg 1003.92 hPa